Time;durP1;ratioP1;P1;durP2;ratioP2;P2;SDS_P1;SDS_P2;PMS_P1;PMS_P2;Temp;Humidity;BMP_temperature;BMP_pressure;BME280_temperature;BME280_humidity;BME280_pressure;Samples;Min_cycle;Max_cycle;Signal;HPM_P1;HPM_P2
2021/12/20 00:00:51;;;;;;;;;;;0.00;97.80;;;;;;5075313;28;19970;-65
2021/12/20 00:03:17;;;;;;;;;;;0.10;97.80;;;;;;5076463;28;19953;-64
2021/12/20 00:05:42;;;;;;;;;;;0.10;97.80;;;;;;5076301;28;19949;-64
2021/12/20 00:08:08;;;;;;;;;;;0.10;97.70;;;;;;5076213;28;20394;-64
2021/12/20 00:10:34;;;;;;;;;;;0.10;97.70;;;;;;5074839;28;20325;-64
2021/12/20 00:13:00;;;;;;;;;;;0.00;97.70;;;;;;5076338;28;20443;-64
2021/12/20 00:15:25;;;;;;;;;;;0.00;97.70;;;;;;5076382;28;20030;-64
2021/12/20 00:17:51;;;;;;;;;;;0.00;97.70;;;;;;5076197;28;19989;-64
2021/12/20 00:20:17;;;;;;;;;;;-3276.70;97.70;;;;;;5076205;28;19971;-64
2021/12/20 00:22:43;;;;;;;;;;;-3276.60;97.80;;;;;;5076224;28;20040;-64
2021/12/20 00:25:09;;;;;;;;;;;-3276.60;97.80;;;;;;5076115;28;20033;-64
2021/12/20 00:27:35;;;;;;;;;;;-3276.50;97.80;;;;;;5075980;28;20377;-64
2021/12/20 00:30:00;;;;;;;;;;;-3276.40;97.80;;;;;;5076177;28;19949;-65
2021/12/20 00:32:26;;;;;;;;;;;-3276.50;97.80;;;;;;5076113;28;20391;-65
2021/12/20 00:34:52;;;;;;;;;;;-3276.50;97.80;;;;;;5076048;28;19937;-65
2021/12/20 00:40:21;;;;;;;;;;;-3276.60;97.80;;;;;;5076003;28;19968;-64
2021/12/20 00:42:51;;;;;;;;;;;-3276.50;97.80;;;;;;5074556;28;20322;-65
2021/12/20 00:45:17;;;;;;;;;;;-3276.60;97.80;;;;;;5074527;28;20300;-65
2021/12/20 00:47:42;;;;;;;;;;;-3276.50;97.80;;;;;;5075813;28;19943;-65
2021/12/20 00:50:09;;;;;;;;;;;-3276.50;97.80;;;;;;5075786;28;19941;-65
2021/12/20 00:52:34;;;;;;;;;;;-3276.50;97.80;;;;;;5075678;28;20425;-65
2021/12/20 00:55:00;;;;;;;;;;;-3276.60;97.80;;;;;;5075494;28;19942;-65
2021/12/20 00:57:25;;;;;;;;;;;-3276.60;97.80;;;;;;5075328;28;20418;-64
2021/12/20 00:59:51;;;;;;;;;;;-3276.60;97.80;;;;;;5075327;28;20407;-64
2021/12/20 01:02:17;;;;;;;;;;;-3276.70;97.80;;;;;;5075312;28;19972;-64
2021/12/20 01:04:42;;;;;;;;;;;-3276.70;97.80;;;;;;5075373;28;20460;-64
2021/12/20 01:07:08;;;;;;;;;;;-3276.70;97.80;;;;;;5075249;28;19944;-64
2021/12/20 01:09:34;;;;;;;;;;;-3276.70;97.90;;;;;;5073769;28;19949;-64
2021/12/20 01:12:04;;;;;;;;;;;-3276.70;97.80;;;;;;5074964;28;20039;-64
2021/12/20 01:14:32;;;;;;;;;;;-3276.70;97.80;;;;;;5074979;28;20451;-64
2021/12/20 01:17:04;;;;;;;;;;;0.00;97.90;;;;;;5074922;28;19987;-64
2021/12/20 01:19:29;;;;;;;;;;;0.00;97.80;;;;;;5074920;28;20038;-64
2021/12/20 01:21:55;;;;;;;;;;;0.00;97.80;;;;;;5074982;28;20468;-64
2021/12/20 01:24:21;;;;;;;;;;;0.00;97.80;;;;;;5075036;28;20412;-65
2021/12/20 01:26:47;;;;;;;;;;;0.00;97.80;;;;;;5074857;28;19941;-65
2021/12/20 01:29:12;;;;;;;;;;;0.00;97.80;;;;;;5075107;28;20037;-65
2021/12/20 01:31:38;;;;;;;;;;;0.00;97.80;;;;;;5075132;28;19986;-65
2021/12/20 01:34:04;;;;;;;;;;;0.00;97.80;;;;;;5075111;28;20404;-65
2021/12/20 01:36:29;;;;;;;;;;;0.00;97.80;;;;;;5075131;28;19956;-65
2021/12/20 01:38:55;;;;;;;;;;;0.00;97.80;;;;;;5075022;28;20413;-65
2021/12/20 01:41:20;;;;;;;;;;;0.00;97.80;;;;;;5074843;28;19975;-65
2021/12/20 01:43:46;;;;;;;;;;;0.00;97.80;;;;;;5074805;28;19952;-65
2021/12/20 01:46:12;;;;;;;;;;;0.00;97.80;;;;;;5074704;28;19942;-65
2021/12/20 01:48:39;;;;;;;;;;;0.00;97.80;;;;;;5074698;28;19936;-65
2021/12/20 01:53:34;;;;;;;;;;;0.00;97.70;;;;;;5074881;28;19953;-65
2021/12/20 01:55:59;;;;;;;;;;;0.00;97.70;;;;;;5074432;28;20390;-66
2021/12/20 01:58:26;;;;;;;;;;;0.00;97.70;;;;;;5074464;28;19944;-65
2021/12/20 02:01:03;;;;;;;;;;;0.00;97.70;;;;;;5074299;28;19963;-65
2021/12/20 02:03:30;;;;;;;;;;;0.00;97.70;;;;;;5074714;28;19945;-64
2021/12/20 02:05:58;;;;;;;;;;;0.00;97.70;;;;;;5073525;28;19942;-64
2021/12/20 02:08:26;;;;;;;;;;;0.10;97.70;;;;;;5074010;28;19939;-64
2021/12/20 02:10:55;;;;;;;;;;;0.10;97.70;;;;;;5072549;28;19997;-64
2021/12/20 02:13:21;;;;;;;;;;;0.20;97.70;;;;;;5074249;28;19947;-64
2021/12/20 02:15:47;;;;;;;;;;;0.20;97.70;;;;;;5074022;28;19999;-64
2021/12/20 02:18:12;;;;;;;;;;;0.20;97.70;;;;;;5072780;28;20345;-64
2021/12/20 02:20:39;;;;;;;;;;;0.20;97.60;;;;;;5073859;28;19962;-64
2021/12/20 02:23:05;;;;;;;;;;;0.20;97.60;;;;;;5073913;28;19989;-65
2021/12/20 02:25:31;;;;;;;;;;;0.20;97.60;;;;;;5073947;28;20085;-64
2021/12/20 02:27:59;;;;;;;;;;;0.20;97.60;;;;;;5073890;28;20001;-64
2021/12/20 02:38:40;;;;;;;;;;;0.10;97.50;;;;;;5074280;28;20391;-65
2021/12/20 02:41:09;;;;;;;;;;;0.00;97.40;;;;;;5073913;28;19961;-65
2021/12/20 02:43:39;;;;;;;;;;;0.10;97.50;;;;;;5074023;28;19949;-65
2021/12/20 02:46:10;;;;;;;;;;;0.20;97.50;;;;;;5073962;28;19960;-65
2021/12/20 02:48:36;;;;;;;;;;;0.40;97.50;;;;;;5073883;28;19940;-65
2021/12/20 02:51:01;;;;;;;;;;;0.40;97.50;;;;;;5073925;28;20030;-65
2021/12/20 02:53:27;;;;;;;;;;;0.50;97.40;;;;;;5073802;28;19976;-64
2021/12/20 02:55:52;;;;;;;;;;;0.40;97.30;;;;;;5073716;28;20378;-66
2021/12/20 02:58:18;;;;;;;;;;;0.30;97.20;;;;;;5073737;28;19937;-64
2021/12/20 03:00:43;;;;;;;;;;;0.30;97.10;;;;;;5073758;28;20423;-65
2021/12/20 03:03:09;;;;;;;;;;;0.30;97.10;;;;;;5073773;28;20449;-65
2021/12/20 03:05:35;;;;;;;;;;;0.30;97.00;;;;;;5073812;28;20448;-65
2021/12/20 03:08:02;;;;;;;;;;;0.30;97.00;;;;;;5072427;28;20007;-65
2021/12/20 03:10:29;;;;;;;;;;;0.30;96.90;;;;;;5073503;28;19963;-65
2021/12/20 03:12:56;;;;;;;;;;;0.30;96.80;;;;;;5072390;28;20326;-65
2021/12/20 03:15:25;;;;;;;;;;;0.30;96.70;;;;;;5073697;28;20400;-65
2021/12/20 03:17:54;;;;;;;;;;;0.30;96.70;;;;;;5073691;28;19942;-65
2021/12/20 03:20:21;;;;;;;;;;;0.10;96.60;;;;;;5077633;28;19963;-65
2021/12/20 03:22:47;;;;;;;;;;;0.10;96.70;;;;;;5077733;28;19957;-65
2021/12/20 03:25:12;;;;;;;;;;;0.10;96.80;;;;;;5077726;28;19937;-65
2021/12/20 03:27:38;;;;;;;;;;;0.00;96.70;;;;;;5077518;28;19957;-65
2021/12/20 03:30:05;;;;;;;;;;;0.00;96.80;;;;;;5076211;28;20034;-65
2021/12/20 03:32:30;;;;;;;;;;;0.10;96.90;;;;;;5077552;28;20098;-65
2021/12/20 03:34:56;;;;;;;;;;;0.10;97.00;;;;;;5077451;28;20037;-65
2021/12/20 03:37:21;;;;;;;;;;;0.10;97.00;;;;;;5077919;28;19945;-65
2021/12/20 03:39:47;;;;;;;;;;;0.10;97.00;;;;;;5077543;28;19942;-65
2021/12/20 03:42:13;;;;;;;;;;;0.20;96.90;;;;;;5077315;28;19969;-65
2021/12/20 03:44:43;;;;;;;;;;;0.30;96.90;;;;;;5077382;28;20317;-65
2021/12/20 03:47:09;;;;;;;;;;;0.30;96.80;;;;;;5077396;28;19945;-65
2021/12/20 03:49:35;;;;;;;;;;;0.30;96.70;;;;;;5077229;28;19990;-65
2021/12/20 03:52:01;;;;;;;;;;;0.40;96.60;;;;;;5077486;28;19939;-65
2021/12/20 03:54:26;;;;;;;;;;;0.30;96.40;;;;;;5077137;28;20485;-65
2021/12/20 03:56:52;;;;;;;;;;;0.30;96.20;;;;;;5077140;28;20053;-65
2021/12/20 03:59:17;;;;;;;;;;;0.20;96.20;;;;;;5076979;28;19947;-65
2021/12/20 04:01:43;;;;;;;;;;;0.20;96.10;;;;;;5075553;28;19962;-65
2021/12/20 04:04:09;;;;;;;;;;;0.10;96.10;;;;;;5077024;28;19952;-65
2021/12/20 04:06:35;;;;;;;;;;;0.10;96.10;;;;;;5076845;28;19945;-65
2021/12/20 04:09:01;;;;;;;;;;;0.10;96.20;;;;;;5076708;28;19960;-65
2021/12/20 04:11:26;;;;;;;;;;;0.00;96.10;;;;;;5076070;28;19992;-65
2021/12/20 04:13:52;;;;;;;;;;;0.00;96.10;;;;;;5075617;28;19942;-65
2021/12/20 04:16:18;;;;;;;;;;;0.00;96.20;;;;;;5075452;28;19954;-65
2021/12/20 04:18:43;;;;;;;;;;;0.00;96.40;;;;;;5074133;28;19948;-65
2021/12/20 04:21:10;;;;;;;;;;;0.20;96.50;;;;;;5075376;28;20307;-65
2021/12/20 04:23:36;;;;;;;;;;;0.20;96.40;;;;;;5075588;28;19940;-65
2021/12/20 04:26:02;;;;;;;;;;;0.30;96.20;;;;;;5075302;28;19966;-65
2021/12/20 04:28:27;;;;;;;;;;;0.40;96.00;;;;;;5075315;28;19946;-65
2021/12/20 04:30:53;;;;;;;;;;;0.30;95.80;;;;;;5074860;28;19943;-65
2021/12/20 04:33:19;;;;;;;;;;;0.20;95.80;;;;;;5075130;28;19946;-65
2021/12/20 04:35:44;;;;;;;;;;;0.20;95.70;;;;;;5075049;28;19953;-65
2021/12/20 04:38:10;;;;;;;;;;;0.10;95.70;;;;;;5075098;28;19941;-65
2021/12/20 04:40:36;;;;;;;;;;;0.00;95.60;;;;;;5074996;28;19961;-65
2021/12/20 04:43:02;;;;;;;;;;;0.00;95.80;;;;;;5075048;28;19951;-65
2021/12/20 04:45:28;;;;;;;;;;;0.00;95.90;;;;;;5074924;28;19946;-65
2021/12/20 04:47:54;;;;;;;;;;;-3276.70;95.90;;;;;;5074946;28;20383;-65
2021/12/20 04:50:20;;;;;;;;;;;-3276.70;96.00;;;;;;5074873;28;19949;-65
2021/12/20 04:52:46;;;;;;;;;;;0.00;96.10;;;;;;5074841;28;19937;-65
2021/12/20 04:55:12;;;;;;;;;;;0.00;96.20;;;;;;5074737;28;19945;-65
2021/12/20 04:57:38;;;;;;;;;;;0.00;96.20;;;;;;5074739;28;19953;-65
2021/12/20 05:00:05;;;;;;;;;;;0.00;96.20;;;;;;5074578;28;19942;-65
2021/12/20 05:02:31;;;;;;;;;;;0.00;96.40;;;;;;5073277;28;19950;-65
2021/12/20 05:04:56;;;;;;;;;;;0.00;96.40;;;;;;5074637;28;19941;-65
2021/12/20 05:07:23;;;;;;;;;;;0.10;96.40;;;;;;5074439;28;20446;-65
2021/12/20 05:09:49;;;;;;;;;;;0.20;96.30;;;;;;5073143;28;20093;-65
2021/12/20 05:12:15;;;;;;;;;;;0.20;96.20;;;;;;4999643;23;1871517;-65
2021/12/20 05:14:41;;;;;;;;;;;0.20;96.10;;;;;;5055003;28;20409;-65
2021/12/20 05:17:08;;;;;;;;;;;0.20;95.90;;;;;;5055375;28;20000;-65
2021/12/20 05:19:33;;;;;;;;;;;0.20;95.80;;;;;;5055448;28;19942;-66
2021/12/20 05:21:59;;;;;;;;;;;0.20;95.70;;;;;;5055177;28;19941;-65
2021/12/20 05:24:25;;;;;;;;;;;0.20;95.50;;;;;;5055116;28;19984;-65
2021/12/20 05:26:50;;;;;;;;;;;0.20;95.60;;;;;;5053675;28;20439;-65
2021/12/20 05:29:16;;;;;;;;;;;0.40;95.60;;;;;;5054821;28;19941;-64
2021/12/20 05:31:41;;;;;;;;;;;0.50;95.50;;;;;;5054753;28;19950;-64
2021/12/20 05:34:07;;;;;;;;;;;0.50;95.10;;;;;;5053526;28;19939;-64
2021/12/20 05:36:32;;;;;;;;;;;0.20;94.70;;;;;;5054715;28;19942;-64
2021/12/20 05:38:58;;;;;;;;;;;0.10;94.70;;;;;;5054425;28;20013;-64
2021/12/20 05:41:23;;;;;;;;;;;0.10;94.90;;;;;;5053403;28;20049;-64
2021/12/20 05:43:49;;;;;;;;;;;0.10;94.90;;;;;;5054428;28;20071;-64
2021/12/20 05:46:15;;;;;;;;;;;0.00;94.60;;;;;;5054506;28;20421;-64
2021/12/20 05:48:40;;;;;;;;;;;0.10;94.70;;;;;;5054674;28;20321;-64
2021/12/20 05:51:06;;;;;;;;;;;0.00;94.50;;;;;;5054488;28;19944;-64
2021/12/20 05:53:31;;;;;;;;;;;0.00;94.70;;;;;;5053583;28;20418;-64
2021/12/20 05:55:57;;;;;;;;;;;0.00;94.90;;;;;;5052853;28;19953;-64
2021/12/20 05:58:23;;;;;;;;;;;0.00;94.90;;;;;;5054152;28;20127;-64
2021/12/20 06:00:48;;;;;;;;;;;0.00;94.80;;;;;;5054317;28;19960;-64
2021/12/20 06:03:14;;;;;;;;;;;0.00;94.90;;;;;;5054379;28;19953;-64
2021/12/20 06:05:41;;;;;;;;;;;0.00;95.00;;;;;;5053089;28;19952;-64
2021/12/20 06:08:07;;;;;;;;;;;0.00;95.10;;;;;;5053924;28;19939;-64
2021/12/20 06:10:33;;;;;;;;;;;0.10;95.10;;;;;;5054028;28;19977;-65
2021/12/20 06:12:58;;;;;;;;;;;0.20;95.20;;;;;;5053609;28;19950;-64
2021/12/20 06:15:24;;;;;;;;;;;0.20;95.10;;;;;;5053631;28;20424;-64
2021/12/20 06:17:49;;;;;;;;;;;0.10;94.80;;;;;;5052552;28;19947;-64
2021/12/20 06:20:15;;;;;;;;;;;0.30;94.70;;;;;;5053443;28;19948;-64
2021/12/20 06:22:41;;;;;;;;;;;0.10;94.30;;;;;;5044712;28;19956;-64
2021/12/20 06:25:07;;;;;;;;;;;0.10;94.40;;;;;;5047748;28;19984;-65
2021/12/20 06:27:32;;;;;;;;;;;0.10;94.50;;;;;;5053117;28;19949;-64
2021/12/20 06:29:58;;;;;;;;;;;0.20;94.50;;;;;;5053644;28;19945;-64
2021/12/20 06:32:23;;;;;;;;;;;0.30;94.30;;;;;;5053605;28;19947;-64
2021/12/20 06:34:49;;;;;;;;;;;0.20;94.10;;;;;;5053226;28;19957;-64
2021/12/20 06:37:15;;;;;;;;;;;0.20;94.00;;;;;;5053445;28;19940;-64
2021/12/20 06:39:41;;;;;;;;;;;0.20;94.00;;;;;;5053226;28;19982;-64
2021/12/20 06:42:06;;;;;;;;;;;0.20;94.00;;;;;;5053032;28;19991;-65
2021/12/20 06:44:32;;;;;;;;;;;0.00;93.70;;;;;;5051504;28;19953;-64
2021/12/20 06:46:58;;;;;;;;;;;0.10;94.20;;;;;;5052006;28;20053;-64
2021/12/20 06:49:23;;;;;;;;;;;0.20;94.10;;;;;;5053427;28;19956;-64
2021/12/20 06:51:49;;;;;;;;;;;0.20;94.00;;;;;;5052393;28;19956;-65
2021/12/20 06:54:15;;;;;;;;;;;0.10;94.20;;;;;;5051757;28;20004;-65
2021/12/20 06:56:42;;;;;;;;;;;0.10;94.40;;;;;;5052945;28;19940;-65
2021/12/20 06:59:07;;;;;;;;;;;0.10;94.50;;;;;;5053018;28;19947;-65
2021/12/20 07:01:33;;;;;;;;;;;0.10;94.70;;;;;;5052246;28;19971;-65
2021/12/20 07:04:01;;;;;;;;;;;0.00;94.80;;;;;;5051631;28;19948;-65
2021/12/20 07:06:27;;;;;;;;;;;0.20;95.10;;;;;;5049687;28;19960;-65
2021/12/20 07:08:52;;;;;;;;;;;0.30;95.10;;;;;;5048457;28;20511;-65
2021/12/20 07:11:18;;;;;;;;;;;0.40;95.00;;;;;;5042255;28;19978;-65
2021/12/20 07:13:43;;;;;;;;;;;0.50;94.70;;;;;;5048793;28;19947;-65
2021/12/20 07:16:09;;;;;;;;;;;0.60;94.50;;;;;;5046999;28;19997;-65
2021/12/20 07:18:35;;;;;;;;;;;0.50;94.30;;;;;;5050128;28;19948;-65
2021/12/20 07:21:01;;;;;;;;;;;0.50;94.20;;;;;;5050443;28;19965;-65
2021/12/20 07:23:26;;;;;;;;;;;0.50;94.30;;;;;;5043736;28;20482;-65
2021/12/20 07:25:52;;;;;;;;;;;0.50;94.10;;;;;;5048722;28;19994;-65
2021/12/20 07:28:17;;;;;;;;;;;0.50;94.10;;;;;;5046102;28;19995;-65
2021/12/20 07:30:46;;;;;;;;;;;0.40;94.00;;;;;;5048240;28;20112;-65
2021/12/20 07:33:12;;;;;;;;;;;0.40;94.20;;;;;;5048109;28;20432;-65
2021/12/20 07:35:38;;;;;;;;;;;0.40;94.20;;;;;;5046803;28;19948;-65
2021/12/20 07:38:04;;;;;;;;;;;0.40;94.30;;;;;;5043868;28;19941;-65
2021/12/20 07:40:30;;;;;;;;;;;0.30;94.30;;;;;;5045464;28;20429;-65
2021/12/20 07:42:56;;;;;;;;;;;0.30;94.50;;;;;;5045471;28;19988;-65
2021/12/20 07:45:21;;;;;;;;;;;0.40;94.80;;;;;;5043969;28;19998;-65
2021/12/20 07:47:48;;;;;;;;;;;0.50;94.90;;;;;;5047158;28;19956;-65
2021/12/20 07:50:13;;;;;;;;;;;0.50;94.90;;;;;;5043779;28;19949;-65
2021/12/20 07:52:39;;;;;;;;;;;0.50;94.80;;;;;;5047746;28;20388;-65
2021/12/20 07:55:05;;;;;;;;;;;0.50;95.00;;;;;;5048424;28;19946;-65
2021/12/20 07:57:30;;;;;;;;;;;0.50;95.00;;;;;;5047001;28;19946;-65
2021/12/20 07:59:56;;;;;;;;;;;0.60;95.10;;;;;;5048824;28;20336;-65
2021/12/20 08:02:22;;;;;;;;;;;0.70;95.10;;;;;;5040821;28;20014;-65
2021/12/20 08:04:50;;;;;;;;;;;0.70;94.80;;;;;;5046196;28;19947;-65
2021/12/20 08:07:16;;;;;;;;;;;0.70;94.70;;;;;;5051042;28;19946;-65
2021/12/20 08:09:42;;;;;;;;;;;0.70;94.70;;;;;;5048361;28;19963;-65
2021/12/20 08:12:08;;;;;;;;;;;0.70;94.60;;;;;;5049322;28;19969;-65
2021/12/20 08:14:34;;;;;;;;;;;0.70;94.70;;;;;;5048840;28;20071;-65
2021/12/20 08:16:59;;;;;;;;;;;0.70;94.50;;;;;;5044830;28;19944;-65
2021/12/20 08:19:25;;;;;;;;;;;0.70;94.60;;;;;;5051556;28;19959;-65
2021/12/20 08:21:51;;;;;;;;;;;0.70;94.60;;;;;;5043884;28;19969;-64
2021/12/20 08:24:16;;;;;;;;;;;0.80;94.80;;;;;;5047508;28;20050;-64
2021/12/20 08:26:42;;;;;;;;;;;0.90;94.60;;;;;;5050825;28;19977;-64
2021/12/20 08:29:08;;;;;;;;;;;1.00;94.50;;;;;;5051933;28;20312;-64
2021/12/20 08:31:36;;;;;;;;;;;1.10;94.50;;;;;;5051533;28;19999;-64
2021/12/20 08:34:02;;;;;;;;;;;1.20;94.30;;;;;;5051914;28;19957;-64
2021/12/20 08:36:28;;;;;;;;;;;1.20;93.90;;;;;;5052558;28;19955;-64
2021/12/20 08:38:53;;;;;;;;;;;1.20;94.00;;;;;;5049988;28;20315;-64
2021/12/20 08:41:19;;;;;;;;;;;1.20;94.00;;;;;;5046486;28;19974;-65
2021/12/20 08:43:44;;;;;;;;;;;1.40;94.00;;;;;;5047187;28;19946;-66
2021/12/20 08:46:10;;;;;;;;;;;1.40;93.70;;;;;;5052676;28;20410;-65
2021/12/20 08:48:36;;;;;;;;;;;1.50;93.60;;;;;;5049138;28;19944;-65
2021/12/20 08:51:02;;;;;;;;;;;1.30;93.70;;;;;;5050907;28;20001;-65
2021/12/20 08:53:28;;;;;;;;;;;1.30;93.90;;;;;;5053186;28;19954;-65
2021/12/20 08:55:54;;;;;;;;;;;1.40;94.00;;;;;;5049033;28;20418;-65
2021/12/20 08:58:19;;;;;;;;;;;1.40;94.10;;;;;;5049399;28;19978;-66
2021/12/20 09:00:45;;;;;;;;;;;1.40;94.30;;;;;;5046413;28;19958;-66
2021/12/20 09:03:11;;;;;;;;;;;1.50;94.40;;;;;;5046168;28;19945;-66
2021/12/20 09:05:36;;;;;;;;;;;1.50;94.50;;;;;;5048467;28;19952;-66
2021/12/20 09:08:02;;;;;;;;;;;1.70;94.60;;;;;;5051091;28;19954;-66
2021/12/20 09:10:29;;;;;;;;;;;1.80;94.70;;;;;;5046449;28;20007;-66
2021/12/20 09:12:55;;;;;;;;;;;1.90;94.70;;;;;;5045106;28;19948;-65
2021/12/20 09:15:20;;;;;;;;;;;2.10;94.70;;;;;;5052310;28;19972;-65
2021/12/20 09:17:47;;;;;;;;;;;1.90;94.30;;;;;;5049549;28;20022;-65
2021/12/20 09:20:14;;;;;;;;;;;1.90;94.50;;;;;;5050206;28;20417;-65
2021/12/20 09:22:52;;;;;;;;;;;1.90;94.70;;;;;;5048091;28;19953;-65
2021/12/20 09:25:25;;;;;;;;;;;2.00;94.70;;;;;;5053531;28;19946;-65
2021/12/20 09:27:51;;;;;;;;;;;2.00;94.90;;;;;;5053355;28;19950;-65
2021/12/20 09:30:18;;;;;;;;;;;2.20;94.90;;;;;;5050401;28;19954;-65
2021/12/20 09:32:44;;;;;;;;;;;2.20;95.10;;;;;;5049894;28;19983;-65
2021/12/20 09:35:10;;;;;;;;;;;2.30;95.10;;;;;;5046576;28;19948;-65
2021/12/20 09:37:37;;;;;;;;;;;2.40;95.30;;;;;;5050111;28;19986;-65
2021/12/20 09:40:03;;;;;;;;;;;2.40;95.40;;;;;;5046761;28;19955;-65
2021/12/20 09:42:31;;;;;;;;;;;2.50;95.50;;;;;;5052233;28;19950;-65
2021/12/20 09:44:57;;;;;;;;;;;2.80;95.60;;;;;;5053031;28;20455;-65
2021/12/20 09:47:22;;;;;;;;;;;3.00;95.50;;;;;;5051948;28;19939;-65
2021/12/20 09:49:48;;;;;;;;;;;3.20;95.10;;;;;;5050575;28;19996;-65
2021/12/20 09:52:14;;;;;;;;;;;3.40;94.80;;;;;;5048902;28;19942;-65
2021/12/20 09:54:39;;;;;;;;;;;3.50;94.50;;;;;;5047436;28;19945;-65
2021/12/20 09:57:10;;;;;;;;;;;3.50;94.00;;;;;;5052178;28;19950;-65
2021/12/20 09:59:36;;;;;;;;;;;3.60;94.00;;;;;;5051331;28;19941;-65
2021/12/20 10:02:05;;;;;;;;;;;3.50;93.50;;;;;;5051181;28;19966;-65
2021/12/20 10:04:31;;;;;;;;;;;3.70;94.10;;;;;;5051794;28;20015;-65
2021/12/20 10:06:59;;;;;;;;;;;3.80;94.20;;;;;;5051875;28;19960;-65
2021/12/20 10:09:33;;;;;;;;;;;3.90;94.20;;;;;;5053094;28;20315;-65
2021/12/20 10:12:18;;;;;;;;;;;4.00;94.40;;;;;;5052421;28;20429;-65
2021/12/20 10:14:55;;;;;;;;;;;4.10;94.30;;;;;;5046652;28;20000;-65
2021/12/20 10:17:22;;;;;;;;;;;4.20;94.30;;;;;;5049625;28;19961;-65
2021/12/20 10:19:48;;;;;;;;;;;4.40;94.30;;;;;;5052562;28;19975;-65
2021/12/20 10:22:22;;;;;;;;;;;4.40;94.40;;;;;;5050584;28;19953;-65
2021/12/20 10:24:47;;;;;;;;;;;4.60;94.40;;;;;;5050351;28;20403;-65
2021/12/20 10:27:28;;;;;;;;;;;4.80;94.00;;;;;;5051569;28;19986;-65
2021/12/20 10:29:53;;;;;;;;;;;5.00;93.80;;;;;;5037728;28;20039;-65
2021/12/20 10:32:39;;;;;;;;;;;5.20;93.70;;;;;;5051605;28;20044;-65
2021/12/20 10:35:24;;;;;;;;;;;5.40;93.40;;;;;;5049791;28;20457;-65
2021/12/20 10:37:50;;;;;;;;;;;5.60;93.10;;;;;;5047989;28;19947;-65
2021/12/20 10:40:15;;;;;;;;;;;5.80;92.80;;;;;;5048251;28;19944;-65
2021/12/20 10:42:41;;;;;;;;;;;5.90;91.90;;;;;;5051453;28;19972;-65
2021/12/20 10:45:14;;;;;;;;;;;5.70;91.90;;;;;;5049378;28;19958;-65
2021/12/20 10:47:41;;;;;;;;;;;5.60;91.40;;;;;;5050258;28;20479;-65
2021/12/20 10:50:25;;;;;;;;;;;5.50;90.50;;;;;;5052272;28;19950;-65
2021/12/20 10:52:51;;;;;;;;;;;5.30;91.10;;;;;;5051884;28;20001;-65
2021/12/20 10:55:35;;;;;;;;;;;5.10;91.50;;;;;;5051639;28;19944;-65
2021/12/20 10:58:19;;;;;;;;;;;5.00;90.70;;;;;;5052752;28;20424;-65
2021/12/20 11:00:45;;;;;;;;;;;5.00;91.60;;;;;;5052599;28;19945;-65
2021/12/20 11:05:57;;;;;;;;;;;5.40;91.10;;;;;;5052446;28;19953;-65
2021/12/20 11:11:12;;;;;;;;;;;5.80;87.80;;;;;;5051872;28;20006;-65
2021/12/20 11:13:38;;;;;;;;;;;6.00;88.30;;;;;;5052899;28;20180;-65
2021/12/20 11:16:22;;;;;;;;;;;6.10;87.40;;;;;;5052881;28;19947;-64
2021/12/20 11:19:07;;;;;;;;;;;6.30;86.90;;;;;;5052811;28;19946;-64
2021/12/20 11:21:33;;;;;;;;;;;6.20;86.00;;;;;;5052751;28;19969;-65
2021/12/20 11:23:59;;;;;;;;;;;6.10;85.90;;;;;;5052875;28;20439;-65
2021/12/20 11:26:27;;;;;;;;;;;5.90;85.30;;;;;;5051377;28;19949;-65
2021/12/20 11:28:56;;;;;;;;;;;5.90;85.00;;;;;;5052826;28;19986;-65
2021/12/20 11:31:22;;;;;;;;;;;5.90;85.40;;;;;;5052708;28;19941;-65
2021/12/20 11:33:48;;;;;;;;;;;5.90;84.90;;;;;;5051463;28;19946;-65
2021/12/20 11:36:13;;;;;;;;;;;6.00;85.40;;;;;;5051298;28;19993;-65
2021/12/20 11:38:39;;;;;;;;;;;6.20;84.60;;;;;;5052545;28;19948;-65
2021/12/20 11:41:05;;;;;;;;;;;6.40;84.00;;;;;;5055924;28;19943;-65
2021/12/20 11:43:31;;;;;;;;;;;6.90;82.80;;;;;;5056453;28;19970;-65
2021/12/20 11:45:57;;;;;;;;;;;7.60;79.80;;;;;;5056331;28;20409;-65
2021/12/20 11:48:24;;;;;;;;;;;8.30;78.20;;;;;;5056380;28;19950;-65
2021/12/20 11:50:54;;;;;;;;;;;8.80;76.10;;;;;;5056538;28;19949;-65
2021/12/20 11:53:20;;;;;;;;;;;9.40;73.50;;;;;;5056317;28;19937;-65
2021/12/20 11:55:52;;;;;;;;;;;9.80;72.20;;;;;;5056214;28;19986;-65
2021/12/20 11:58:19;;;;;;;;;;;10.40;72.30;;;;;;5056186;28;20098;-65
2021/12/20 12:00:55;;;;;;;;;;;10.90;68.70;;;;;;5056324;28;19959;-65
2021/12/20 12:03:26;;;;;;;;;;;11.30;65.70;;;;;;5056081;28;20389;-65
2021/12/20 12:05:53;;;;;;;;;;;11.50;64.90;;;;;;5056007;28;19949;-65
2021/12/20 12:08:37;;;;;;;;;;;11.80;63.50;;;;;;5055898;28;20290;-65
2021/12/20 12:11:09;;;;;;;;;;;12.30;62.90;;;;;;5055320;28;20064;-65
2021/12/20 12:16:26;;;;;;;;;;;12.70;60.30;;;;;;5055627;28;20312;-65
2021/12/20 12:18:52;;;;;;;;;;;12.90;59.20;;;;;;5055765;28;19940;-65
2021/12/20 12:21:38;;;;;;;;;;;13.30;58.00;;;;;;5055823;28;20290;-65
2021/12/20 12:24:11;;;;;;;;;;;13.90;59.10;;;;;;5055604;28;20229;-65
2021/12/20 12:26:41;;;;;;;;;;;14.80;54.40;;;;;;5053131;28;20301;-65
2021/12/20 12:29:17;;;;;;;;;;;15.50;52.10;;;;;;5049083;28;20002;-63
2021/12/20 12:31:49;;;;;;;;;;;16.30;50.10;;;;;;5049961;28;20316;-63
2021/12/20 12:34:15;;;;;;;;;;;16.90;47.50;;;;;;5051703;28;20426;-64
2021/12/20 12:36:42;;;;;;;;;;;17.60;45.60;;;;;;5051159;28;20007;-63
2021/12/20 12:39:09;;;;;;;;;;;18.00;43.90;;;;;;5048672;28;20312;-63
2021/12/20 12:41:45;;;;;;;;;;;17.90;41.70;;;;;;5049851;28;19964;-63
2021/12/20 12:44:12;;;;;;;;;;;17.30;42.70;;;;;;5048227;28;20425;-63
2021/12/20 12:46:42;;;;;;;;;;;17.10;43.40;;;;;;5050421;28;20016;-63
2021/12/20 12:49:22;;;;;;;;;;;17.00;43.00;;;;;;5053189;28;19960;-63
2021/12/20 12:52:06;;;;;;;;;;;16.60;42.20;;;;;;5051562;28;19976;-63
2021/12/20 12:54:45;;;;;;;;;;;16.70;42.40;;;;;;5048314;28;19955;-63
2021/12/20 12:57:11;;;;;;;;;;;16.70;41.40;;;;;;5041582;28;19948;-64
2021/12/20 12:59:37;;;;;;;;;;;17.20;41.90;;;;;;5051477;28;19964;-64
2021/12/20 13:02:10;;;;;;;;;;;17.70;40.80;;;;;;5047767;28;19963;-64
2021/12/20 13:04:45;;;;;;;;;;;18.20;39.00;;;;;;5038615;28;19956;-64
2021/12/20 13:07:11;;;;;;;;;;;18.40;38.40;;;;;;5047873;28;19940;-65
2021/12/20 13:09:43;;;;;;;;;;;18.80;37.40;;;;;;5052187;28;19986;-64
2021/12/20 13:12:11;;;;;;;;;;;18.70;37.80;;;;;;5055663;23;20042;-64
2021/12/20 13:14:50;;;;;;;;;;;19.10;37.10;;;;;;5047745;28;20051;-64
2021/12/20 13:17:27;;;;;;;;;;;18.80;36.40;;;;;;5054065;28;19955;-64
2021/12/20 13:20:07;;;;;;;;;;;18.50;36.60;;;;;;5046405;28;19954;-65
2021/12/20 13:22:32;;;;;;;;;;;18.10;38.10;;;;;;5050746;28;20009;-65
2021/12/20 13:24:58;;;;;;;;;;;17.60;38.00;;;;;;5045490;28;20456;-65
2021/12/20 13:27:29;;;;;;;;;;;17.30;38.20;;;;;;5054232;28;19955;-65
2021/12/20 13:29:54;;;;;;;;;;;17.20;39.10;;;;;;5065798;28;19940;-65
2021/12/20 13:32:20;;;;;;;;;;;17.80;38.70;;;;;;5056344;28;19943;-65
2021/12/20 13:34:45;;;;;;;;;;;18.30;37.70;;;;;;5052723;28;19953;-65
2021/12/20 13:37:12;;;;;;;;;;;18.40;37.10;;;;;;5052909;28;19951;-65
2021/12/20 13:39:38;;;;;;;;;;;18.60;36.60;;;;;;5058180;28;19962;-65
2021/12/20 13:42:07;;;;;;;;;;;18.80;35.70;;;;;;5052806;28;19964;-66
2021/12/20 13:44:33;;;;;;;;;;;19.00;36.00;;;;;;5056128;28;19953;-65
2021/12/20 13:47:02;;;;;;;;;;;19.10;35.60;;;;;;5055903;28;20328;-65
2021/12/20 13:49:28;;;;;;;;;;;18.80;34.30;;;;;;5057003;28;19956;-65
2021/12/20 13:52:02;;;;;;;;;;;18.00;35.20;;;;;;5052793;28;19995;-65
2021/12/20 13:54:36;;;;;;;;;;;17.30;36.60;;;;;;5054125;28;19964;-65
2021/12/20 13:57:14;;;;;;;;;;;17.20;37.10;;;;;;5051364;28;20473;-65
2021/12/20 13:59:50;;;;;;;;;;;16.90;37.90;;;;;;5047803;28;19947;-65
2021/12/20 14:02:20;;;;;;;;;;;16.80;38.20;;;;;;5050162;28;19963;-66
2021/12/20 14:04:47;;;;;;;;;;;17.30;38.30;;;;;;5048422;28;19941;-65
2021/12/20 14:07:30;;;;;;;;;;;17.80;37.50;;;;;;5047519;28;20058;-65
2021/12/20 14:10:02;;;;;;;;;;;18.30;35.70;;;;;;5053211;28;19966;-65
2021/12/20 14:12:44;;;;;;;;;;;18.70;35.50;;;;;;5051025;28;19976;-65
2021/12/20 14:15:11;;;;;;;;;;;18.70;35.30;;;;;;5046458;28;19949;-65
2021/12/20 14:17:52;;;;;;;;;;;18.60;35.20;;;;;;5051346;28;20031;-65
2021/12/20 14:20:18;;;;;;;;;;;18.50;35.40;;;;;;5052341;28;19977;-65
2021/12/20 14:22:58;;;;;;;;;;;18.30;35.20;;;;;;5046896;28;20086;-65
2021/12/20 14:25:37;;;;;;;;;;;17.90;36.10;;;;;;5041007;28;20411;-65
2021/12/20 14:28:04;;;;;;;;;;;17.30;37.50;;;;;;5051073;28;20037;-65
2021/12/20 14:30:30;;;;;;;;;;;16.70;39.00;;;;;;5051245;28;20348;-65
2021/12/20 14:32:56;;;;;;;;;;;16.60;38.90;;;;;;5050505;28;19944;-65
2021/12/20 14:35:22;;;;;;;;;;;16.00;39.90;;;;;;5056874;28;19959;-65
2021/12/20 14:37:48;;;;;;;;;;;16.00;40.90;;;;;;5053559;28;19946;-65
2021/12/20 14:40:33;;;;;;;;;;;16.10;40.90;;;;;;5062047;28;19951;-65
2021/12/20 14:43:11;;;;;;;;;;;15.90;41.40;;;;;;5051534;28;19960;-65
2021/12/20 14:45:37;;;;;;;;;;;15.60;42.20;;;;;;5046512;28;19947;-65
2021/12/20 14:48:24;;;;;;;;;;;15.70;42.30;;;;;;5051314;28;19950;-66